createdAt,value
2018-05-12T00:00:17.946Z,67.96
2018-05-12T00:01:17.943Z,67.86
2018-05-12T00:02:17.955Z,67.96
2018-05-12T00:03:17.933Z,67.68
2018-05-12T00:04:17.935Z,67.96
2018-05-12T00:05:17.950Z,68.15
2018-05-12T00:06:17.930Z,68.05
2018-05-12T00:07:17.928Z,67.90
2018-05-12T00:08:17.927Z,67.86
2018-05-12T00:09:17.927Z,68.09
2018-05-12T00:10:17.924Z,67.77
2018-05-12T00:11:17.917Z,68.05
2018-05-12T00:12:17.914Z,67.77
2018-05-12T00:13:17.912Z,67.86
2018-05-12T00:14:17.915Z,67.77
2018-05-12T00:15:17.905Z,68.05
2018-05-12T00:16:17.903Z,67.68
2018-05-12T00:17:17.901Z,67.96
2018-05-12T00:18:17.897Z,68.05
2018-05-12T00:19:17.894Z,67.48
2018-05-12T00:20:17.893Z,67.29
2018-05-12T00:21:17.888Z,67.39
2018-05-12T00:22:17.886Z,67.29
2018-05-12T00:23:17.884Z,67.00
2018-05-12T00:24:17.879Z,67.29
2018-05-12T00:25:17.878Z,67.00
2018-05-12T00:26:17.877Z,67.10
2018-05-12T00:27:17.873Z,66.91
2018-05-12T00:28:17.872Z,66.91
2018-05-12T00:29:17.866Z,67.10
2018-05-12T00:30:17.865Z,67.00
2018-05-12T00:31:17.860Z,67.20
2018-05-12T00:32:17.859Z,67.00
2018-05-12T00:33:17.858Z,67.00
2018-05-12T00:34:17.852Z,67.39
2018-05-12T00:35:17.849Z,67.29
2018-05-12T00:36:17.844Z,67.29
2018-05-12T00:37:17.843Z,67.39
2018-05-12T00:38:17.846Z,67.29
2018-05-12T00:39:17.836Z,67.29
2018-05-12T00:40:17.838Z,67.20
2018-05-12T00:41:17.832Z,67.20
2018-05-12T00:42:17.830Z,67.20
2018-05-12T00:43:17.826Z,67.39
2018-05-12T00:44:17.823Z,67.20
2018-05-12T00:45:17.823Z,67.39
2018-05-12T00:46:17.817Z,67.29
2018-05-12T00:47:17.814Z,67.10
2018-05-12T00:48:17.817Z,67.39
2018-05-12T00:49:17.809Z,67.29
2018-05-12T00:50:17.808Z,67.29
2018-05-12T00:51:17.803Z,67.48
2018-05-12T00:52:17.799Z,67.10
2018-05-12T00:53:17.797Z,66.91
2018-05-12T00:54:17.794Z,67.29
2018-05-12T00:55:17.791Z,67.20
2018-05-12T00:56:17.803Z,67.20
2018-05-12T00:57:17.790Z,66.72
2018-05-12T00:58:17.783Z,67.29
2018-05-12T00:59:17.779Z,66.63
2018-05-12T01:00:17.776Z,66.91
2018-05-12T01:01:17.778Z,67.10
2018-05-12T01:02:17.772Z,67.10
2018-05-12T01:03:17.769Z,66.72
2018-05-12T01:04:17.764Z,66.53
2018-05-12T01:05:17.761Z,66.53
2018-05-12T01:06:17.759Z,66.44
2018-05-12T01:07:17.755Z,66.59
2018-05-12T01:08:17.755Z,66.53
2018-05-12T01:09:17.758Z,66.63
2018-05-12T01:10:17.747Z,66.63
2018-05-12T01:11:17.743Z,66.63
2018-05-12T01:12:17.741Z,67.00
2018-05-12T01:13:17.737Z,67.00
2018-05-12T01:14:17.743Z,66.40
2018-05-12T01:15:17.733Z,66.15
2018-05-12T01:16:17.730Z,66.11
2018-05-12T01:17:17.728Z,65.92
2018-05-12T01:18:17.762Z,66.11
2018-05-12T01:19:17.719Z,66.02
2018-05-12T01:20:17.716Z,65.83
2018-05-12T01:21:17.714Z,65.92
2018-05-12T01:22:17.709Z,65.92
2018-05-12T01:23:17.711Z,66.02
2018-05-12T01:24:17.710Z,65.83
2018-05-12T01:25:17.703Z,65.83
2018-05-12T01:26:17.701Z,65.83
2018-05-12T01:27:17.695Z,65.83
2018-05-12T01:28:17.693Z,65.92
2018-05-12T01:29:17.735Z,66.21
2018-05-12T01:30:17.686Z,66.21
2018-05-12T01:31:17.682Z,66.11
2018-05-12T01:32:17.679Z,66.11
2018-05-12T01:33:17.683Z,66.11
2018-05-12T01:34:17.674Z,65.92
2018-05-12T01:35:17.676Z,66.11
2018-05-12T01:36:17.667Z,65.73
2018-05-12T01:37:17.667Z,65.26
2018-05-12T01:38:17.663Z,65.36
2018-05-12T01:39:17.659Z,65.26
2018-05-12T01:40:17.659Z,65.36
2018-05-12T01:41:17.653Z,65.64
2018-05-12T01:42:17.648Z,65.64
2018-05-12T01:43:17.645Z,65.45
2018-05-12T01:44:17.643Z,65.16
2018-05-12T01:45:17.644Z,65.55
2018-05-12T01:46:17.638Z,65.45
2018-05-12T01:47:17.633Z,65.16
2018-05-12T01:48:17.630Z,65.45
2018-05-12T01:49:17.629Z,65.64
2018-05-12T01:50:17.624Z,65.55
2018-05-12T01:51:17.627Z,65.55
2018-05-12T01:52:17.618Z,65.45
2018-05-12T01:53:17.620Z,65.16
2018-05-12T01:54:17.612Z,64.87
2018-05-12T01:55:17.605Z,64.78
2018-05-12T01:56:17.605Z,64.69
2018-05-12T01:57:17.601Z,65.16
2018-05-12T01:58:17.603Z,64.97
2018-05-12T01:59:17.600Z,64.87
2018-05-12T02:00:17.591Z,64.97
2018-05-12T02:01:17.589Z,64.97
2018-05-12T02:02:17.587Z,64.59
2018-05-12T02:03:17.587Z,64.69
2018-05-12T02:04:17.581Z,64.40
2018-05-12T02:05:17.575Z,64.21
2018-05-12T02:06:17.573Z,64.21
2018-05-12T02:07:17.574Z,64.50
2018-05-12T02:08:17.570Z,64.31
2018-05-12T02:09:17.564Z,64.12
2018-05-12T02:10:17.565Z,64.12
2018-05-12T02:11:17.556Z,64.12
2018-05-12T02:12:17.555Z,64.50
2018-05-12T02:13:17.550Z,64.78
2018-05-12T02:14:17.548Z,64.50
2018-05-12T02:15:17.548Z,64.59
2018-05-12T02:16:17.539Z,64.21
2018-05-12T02:17:17.537Z,64.21
2018-05-12T02:18:17.539Z,63.73
2018-05-12T02:19:17.529Z,64.12
2018-05-12T02:20:17.528Z,63.64
2018-05-12T02:21:17.524Z,63.92
2018-05-12T02:22:17.525Z,63.73
2018-05-12T02:23:17.517Z,63.45
2018-05-12T02:24:17.512Z,64.02
2018-05-12T02:25:17.512Z,64.02
2018-05-12T02:26:17.509Z,63.92
2018-05-12T02:27:17.502Z,64.12
2018-05-12T02:28:17.500Z,63.92
2018-05-12T02:29:17.497Z,63.35
2018-05-12T02:30:17.510Z,63.83
2018-05-12T02:31:17.491Z,63.07
2018-05-12T02:32:17.490Z,63.73
2018-05-12T02:33:17.485Z,63.73
2018-05-12T02:34:17.483Z,63.35
2018-05-12T02:35:17.478Z,63.54
2018-05-12T02:36:17.475Z,63.17
2018-05-12T02:37:17.470Z,62.88
2018-05-12T02:38:17.471Z,63.07
2018-05-12T02:39:17.462Z,63.26
2018-05-12T02:40:17.461Z,63.29
2018-05-12T02:41:17.460Z,63.45
2018-05-12T02:42:17.481Z,63.10
2018-05-12T02:43:17.450Z,62.72
2018-05-12T02:44:17.447Z,62.91
2018-05-12T02:45:17.445Z,62.72
2018-05-12T02:46:17.442Z,62.15
2018-05-12T02:47:17.440Z,62.43
2018-05-12T02:48:17.440Z,62.34
2018-05-12T02:49:17.433Z,62.62
2018-05-12T02:50:17.430Z,62.24
2018-05-12T02:51:17.425Z,62.52
2018-05-12T02:52:17.420Z,62.15
2018-05-12T02:53:17.417Z,61.67
2018-05-12T02:54:17.415Z,62.05
2018-05-12T02:55:17.410Z,61.96
2018-05-12T02:56:17.407Z,61.76
2018-05-12T02:57:17.410Z,61.57
2018-05-12T02:58:17.403Z,61.76
2018-05-12T02:59:17.397Z,61.67
2018-05-12T03:00:17.395Z,61.29
2018-05-12T03:01:17.392Z,61.86
2018-05-12T03:02:17.392Z,61.38
2018-05-12T03:03:17.386Z,61.19
2018-05-12T03:04:17.381Z,61.29
2018-05-12T03:05:17.385Z,61.48
2018-05-12T03:06:17.377Z,61.76
2018-05-12T03:07:17.373Z,61.86
2018-05-12T03:08:17.370Z,61.48
2018-05-12T03:09:17.369Z,61.10
2018-05-12T03:10:17.365Z,61.60
2018-05-12T03:11:17.360Z,61.60
2018-05-12T03:12:17.357Z,61.51
2018-05-12T03:13:17.353Z,61.70
2018-05-12T03:14:17.351Z,61.51
2018-05-12T03:15:17.348Z,60.94
2018-05-12T03:16:17.344Z,60.75
2018-05-12T03:17:17.341Z,60.75
2018-05-12T03:18:17.338Z,60.65
2018-05-12T03:19:17.335Z,60.55
2018-05-12T03:20:17.340Z,60.55
2018-05-12T03:21:17.330Z,60.75
2018-05-12T03:22:17.322Z,60.55
2018-05-12T03:23:17.321Z,60.94
2018-05-12T03:24:17.320Z,60.84
2018-05-12T03:25:17.316Z,60.55
2018-05-12T03:26:17.314Z,60.36
2018-05-12T03:27:17.312Z,60.36
2018-05-12T03:28:17.308Z,60.21
2018-05-12T03:29:17.305Z,60.58
2018-05-12T03:30:17.392Z,60.21
2018-05-12T03:31:17.303Z,60.21
2018-05-12T03:32:17.297Z,60.21
2018-05-12T03:33:17.294Z,60.78
2018-05-12T03:34:17.294Z,60.11
2018-05-12T03:35:17.288Z,60.39
2018-05-12T03:36:17.281Z,60.21
2018-05-12T03:37:17.284Z,60.58
2018-05-12T03:38:17.284Z,60.21
2018-05-12T03:39:17.280Z,60.30
2018-05-12T03:40:17.279Z,60.49
2018-05-12T03:41:17.276Z,60.11
2018-05-12T03:42:17.267Z,60.02
2018-05-12T03:43:17.266Z,60.21
2018-05-12T03:44:17.262Z,59.92
2018-05-12T03:45:17.260Z,60.30
2018-05-12T03:46:17.260Z,60.39
2018-05-12T03:47:17.251Z,60.21
2018-05-12T03:48:17.255Z,60.30
2018-05-12T03:49:17.250Z,60.11
2018-05-12T03:50:17.245Z,59.63
2018-05-12T03:51:17.243Z,59.53
2018-05-12T03:52:17.243Z,59.44
2018-05-12T03:53:17.238Z,60.02
2018-05-12T03:54:17.237Z,60.30
2018-05-12T03:55:17.232Z,60.11
2018-05-12T03:56:17.234Z,60.02
2018-05-12T03:57:17.231Z,60.02
2018-05-12T03:58:17.226Z,59.73
2018-05-12T03:59:17.226Z,59.73
2018-05-12T04:00:17.224Z,59.44
2018-05-12T04:01:17.226Z,59.34
2018-05-12T04:02:17.217Z,59.66
2018-05-12T04:03:17.211Z,59.95
2018-05-12T04:04:17.210Z,59.38
2018-05-12T04:05:17.205Z,60.14
2018-05-12T04:06:17.204Z,60.04
2018-05-12T04:07:17.201Z,59.95
2018-05-12T04:08:17.199Z,59.56
2018-05-12T04:09:17.197Z,59.56
2018-05-12T04:10:17.195Z,59.28
2018-05-12T04:11:17.194Z,59.09
2018-05-12T04:12:17.185Z,60.04
2018-05-12T04:13:17.185Z,59.56
2018-05-12T04:14:17.182Z,59.66
2018-05-12T04:15:17.181Z,58.99
2018-05-12T04:16:17.177Z,59.19
2018-05-12T04:17:17.175Z,59.19
2018-05-12T04:18:17.176Z,59.28
2018-05-12T04:19:17.171Z,59.28
2018-05-12T04:20:17.171Z,59.28
2018-05-12T04:21:17.164Z,59.28
2018-05-12T04:22:17.162Z,59.19
2018-05-12T04:23:17.164Z,59.28
2018-05-12T04:24:17.173Z,58.99
2018-05-12T04:25:17.156Z,59.19
2018-05-12T04:26:17.153Z,59.25
2018-05-12T04:27:17.149Z,58.99
2018-05-12T04:28:17.146Z,59.28
2018-05-12T04:29:17.148Z,59.06
2018-05-12T04:30:17.142Z,59.28
2018-05-12T04:31:17.139Z,59.09
2018-05-12T04:32:17.135Z,59.09
2018-05-12T04:33:17.136Z,59.38
2018-05-12T04:34:17.129Z,59.28
2018-05-12T04:35:17.127Z,59.19
2018-05-12T04:36:17.122Z,58.70
2018-05-12T04:37:17.128Z,58.90
2018-05-12T04:38:17.119Z,59.19
2018-05-12T04:39:17.116Z,58.80
2018-05-12T04:40:17.115Z,58.70
2018-05-12T04:41:17.112Z,59.50
2018-05-12T04:42:17.109Z,59.69
2018-05-12T04:43:17.157Z,59.50
2018-05-12T04:44:17.104Z,59.22
2018-05-12T04:45:17.101Z,59.69
2018-05-12T04:46:17.099Z,60.27
2018-05-12T04:47:17.097Z,60.58
2018-05-12T04:48:17.098Z,61.66
2018-05-12T04:49:17.096Z,64.37
2018-05-12T04:50:17.090Z,65.61
2018-05-12T04:51:17.087Z,68.23
2018-05-12T04:52:17.086Z,67.50
2018-05-12T04:53:17.082Z,67.66
2018-05-12T04:54:17.138Z,67.27
2018-05-12T04:55:17.079Z,66.99
2018-05-12T04:56:17.073Z,66.54
2018-05-12T04:57:17.074Z,69.03
2018-05-12T04:58:17.071Z,69.17
2018-05-12T04:59:17.068Z,69.54
2018-05-12T05:00:17.067Z,68.84
2018-05-12T05:01:17.068Z,68.49
2018-05-12T05:02:17.064Z,67.98
2018-05-12T05:03:17.062Z,67.91
2018-05-12T05:04:17.060Z,67.44
2018-05-12T05:05:17.066Z,69.07
2018-05-12T05:06:17.057Z,69.54
2018-05-12T05:07:17.052Z,70.03
2018-05-12T05:08:17.097Z,70.44
2018-05-12T05:09:17.052Z,71.02
2018-05-12T05:10:17.049Z,70.73
2018-05-12T05:11:17.047Z,72.20
2018-05-12T05:12:17.047Z,71.92
2018-05-12T05:13:17.052Z,70.96
2018-05-12T05:14:17.045Z,70.15
2018-05-12T05:15:17.074Z,71.25
2018-05-12T05:16:17.043Z,72.08
2018-05-12T05:17:17.041Z,73.52
2018-05-12T05:18:17.042Z,74.90
2018-05-12T05:19:17.042Z,77.44
2018-05-12T05:20:17.036Z,76.81
2018-05-12T05:21:17.140Z,78.96
2018-05-12T05:22:17.036Z,78.00
2018-05-12T05:23:17.035Z,79.77
2018-05-12T05:24:17.035Z,79.96
2018-05-12T05:25:17.042Z,77.33
2018-05-12T05:26:17.034Z,77.09
2018-05-12T05:27:17.032Z,77.09
2018-05-12T05:28:17.033Z,76.94
2018-05-12T05:29:17.033Z,76.81
2018-05-12T05:30:17.033Z,77.19
2018-05-12T05:31:17.032Z,78.09
2018-05-12T05:32:17.032Z,77.13
2018-05-12T05:33:17.032Z,75.23
2018-05-12T05:34:17.032Z,74.94
2018-05-12T05:35:17.068Z,75.75
2018-05-12T05:36:17.039Z,76.32
2018-05-12T05:37:17.033Z,76.32
2018-05-12T05:38:17.033Z,76.14
2018-05-12T05:39:17.034Z,75.84
2018-05-12T05:40:17.036Z,77.46
2018-05-12T05:41:17.038Z,77.26
2018-05-12T05:42:17.038Z,78.94
2018-05-12T05:43:17.035Z,78.85
2018-05-12T05:44:17.035Z,79.43
2018-05-12T05:45:17.040Z,74.98
2018-05-12T05:46:17.037Z,75.56
2018-05-12T05:47:17.038Z,75.94
2018-05-12T05:48:17.040Z,75.07
2018-05-12T05:49:17.042Z,74.94
2018-05-12T05:50:17.055Z,75.84
2018-05-12T05:51:17.042Z,77.81
2018-05-12T05:52:17.049Z,76.65
2018-05-12T05:53:17.046Z,76.26
2018-05-12T05:54:17.046Z,75.46
2018-05-12T05:55:17.047Z,76.65
2018-05-12T05:56:17.048Z,74.37
2018-05-12T05:57:17.049Z,73.27
2018-05-12T05:58:17.060Z,73.27
2018-05-12T05:59:17.073Z,74.85
2018-05-12T06:00:17.052Z,74.75
2018-05-12T06:01:17.056Z,77.81
2018-05-12T06:02:17.053Z,78.33
2018-05-12T06:03:17.056Z,77.33
2018-05-12T06:04:17.056Z,77.94
2018-05-12T06:05:17.057Z,79.33
2018-05-12T06:06:17.066Z,80.23
2018-05-12T06:07:17.061Z,81.76
2018-05-12T06:08:17.062Z,83.73
2018-05-12T06:09:17.063Z,84.65
2018-05-12T06:10:17.067Z,83.07
2018-05-12T06:11:17.064Z,82.41
2018-05-12T06:12:17.069Z,81.27
2018-05-12T06:13:17.070Z,82.98
2018-05-12T06:14:17.071Z,83.66
2018-05-12T06:15:17.073Z,84.09
2018-05-12T06:16:17.074Z,83.61
2018-05-12T06:17:17.085Z,82.17
2018-05-12T06:18:17.078Z,81.65
2018-05-12T06:19:17.078Z,83.18
2018-05-12T06:20:17.081Z,85.96
2018-05-12T06:21:17.085Z,85.91
2018-05-12T06:22:17.086Z,86.10
2018-05-12T06:23:17.095Z,87.82
2018-05-12T06:24:17.100Z,85.91
2018-05-12T06:25:17.095Z,87.16
2018-05-12T06:26:17.091Z,86.05
2018-05-12T06:27:17.097Z,87.49
2018-05-12T06:28:17.100Z,87.20
2018-05-12T06:29:17.101Z,87.40
2018-05-12T06:30:17.106Z,87.53
2018-05-12T06:31:17.107Z,88.10
2018-05-12T06:32:17.109Z,86.60
2018-05-12T06:33:17.113Z,85.64
2018-05-12T06:34:17.115Z,86.24
2018-05-12T06:35:17.119Z,85.96
2018-05-12T06:36:17.131Z,86.30
2018-05-12T06:37:17.128Z,87.30
2018-05-12T06:38:17.129Z,88.41
2018-05-12T06:39:17.136Z,88.31
2018-05-12T06:40:17.136Z,87.64
2018-05-12T06:41:17.138Z,88.84
2018-05-12T06:42:17.147Z,88.60
2018-05-12T06:43:17.146Z,87.35
2018-05-12T06:44:17.143Z,87.54
2018-05-12T06:45:17.151Z,87.30
2018-05-12T06:46:17.155Z,87.78
2018-05-12T06:47:17.160Z,87.73
2018-05-12T06:48:17.167Z,87.24
2018-05-12T06:49:17.165Z,87.92
2018-05-12T06:50:17.169Z,87.67
2018-05-12T06:51:17.175Z,87.82
2018-05-12T06:52:17.176Z,87.92
2018-05-12T06:53:17.180Z,87.92
2018-05-12T06:54:17.184Z,87.92
2018-05-12T06:55:17.187Z,87.78
2018-05-12T06:56:17.189Z,87.68
2018-05-12T06:57:17.196Z,87.92
2018-05-12T06:58:17.202Z,88.45
2018-05-12T06:59:17.204Z,87.47
2018-05-12T07:00:17.214Z,84.66
2018-05-12T07:01:17.244Z,85.59
2018-05-12T07:02:17.212Z,86.11
2018-05-12T07:03:17.223Z,85.21
2018-05-12T07:04:17.226Z,86.18
2018-05-12T07:05:17.225Z,86.38
2018-05-12T07:06:17.229Z,86.22
2018-05-12T07:07:17.233Z,85.60
2018-05-12T07:08:17.240Z,86.77
2018-05-12T07:09:17.241Z,87.97
2018-05-12T07:10:17.247Z,87.63
2018-05-12T07:11:17.249Z,86.71
2018-05-12T07:12:17.300Z,85.69
2018-05-12T07:13:17.258Z,84.19
2018-05-12T07:14:17.269Z,79.64
2018-05-12T07:15:17.267Z,85.50
2018-05-12T07:16:17.272Z,86.82
2018-05-12T07:17:17.280Z,86.57
2018-05-12T07:18:17.285Z,86.82
2018-05-12T07:19:17.286Z,87.21
2018-05-12T07:20:17.289Z,88.42
2018-05-12T07:21:17.294Z,87.12
2018-05-12T07:22:17.301Z,87.51
2018-05-12T07:23:17.306Z,87.32
2018-05-12T07:24:17.307Z,88.38
2018-05-12T07:25:17.313Z,87.26
2018-05-12T07:26:17.321Z,89.13
2018-05-12T07:27:17.322Z,87.44
2018-05-12T07:28:17.325Z,87.35
2018-05-12T07:29:17.335Z,87.60
2018-05-12T07:30:17.335Z,88.26
2018-05-12T07:31:17.336Z,86.82
2018-05-12T07:32:17.343Z,86.91
2018-05-12T07:33:17.346Z,85.63
2018-05-12T07:34:17.352Z,75.81
2018-05-12T07:35:17.355Z,75.46
2018-05-12T07:36:17.361Z,77.45
2018-05-12T07:37:17.369Z,81.26
2018-05-12T07:38:17.374Z,86.72
2018-05-12T07:39:17.376Z,86.62
2018-05-12T07:40:17.382Z,86.82
2018-05-12T07:41:17.386Z,87.44
2018-05-12T07:42:17.392Z,84.00
2018-05-12T07:43:17.394Z,80.07
2018-05-12T07:44:17.401Z,78.61
2018-05-12T07:45:17.405Z,71.30
2018-05-12T07:46:17.410Z,65.75
2018-05-12T07:47:17.416Z,61.46
2018-05-12T07:48:17.420Z,59.00
2018-05-12T07:49:17.426Z,58.97
2018-05-12T07:50:17.431Z,58.90
2018-05-12T07:51:17.432Z,60.32
2018-05-12T07:52:17.449Z,61.27
2018-05-12T07:53:17.451Z,64.27
2018-05-12T07:54:17.461Z,71.20
2018-05-12T07:55:17.462Z,73.58
2018-05-12T07:56:17.476Z,75.47
2018-05-12T07:57:17.475Z,80.64
2018-05-12T07:58:17.486Z,82.43
2018-05-12T07:59:17.484Z,79.33
2018-05-12T08:00:17.492Z,83.44
2018-05-12T08:01:17.497Z,83.25
2018-05-12T08:02:17.504Z,81.07
2018-05-12T08:03:17.509Z,79.37
2018-05-12T08:04:17.516Z,80.10
2018-05-12T08:05:17.522Z,83.69
2018-05-12T08:06:17.527Z,86.01
2018-05-12T08:07:17.539Z,86.93
2018-05-12T08:08:17.539Z,87.98
2018-05-12T08:09:17.542Z,83.48
2018-05-12T08:10:17.551Z,78.27
2018-05-12T08:11:17.554Z,81.22
2018-05-12T08:12:17.560Z,83.15
2018-05-12T08:13:17.566Z,84.59
2018-05-12T08:14:17.572Z,84.89
2018-05-12T08:15:17.578Z,82.71
2018-05-12T08:16:17.584Z,82.28
2018-05-12T08:17:17.590Z,85.08
2018-05-12T08:18:17.596Z,85.85
2018-05-12T08:19:17.602Z,85.37
2018-05-12T08:20:17.609Z,83.63
2018-05-12T08:21:17.615Z,85.46
2018-05-12T08:22:17.685Z,84.21
2018-05-12T08:23:17.621Z,83.88
2018-05-12T08:24:17.635Z,86.04
2018-05-12T08:25:17.635Z,83.29
2018-05-12T08:26:17.639Z,75.48
2018-05-12T08:27:17.649Z,69.46
2018-05-12T08:28:17.649Z,77.11
2018-05-12T08:29:17.661Z,78.17
2018-05-12T08:30:17.662Z,74.51
2018-05-12T08:31:17.666Z,81.22
2018-05-12T08:32:17.672Z,80.78
2018-05-12T08:33:17.679Z,77.05
2018-05-12T08:34:17.684Z,74.77
2018-05-12T08:35:17.695Z,74.96
2018-05-12T08:36:17.697Z,75.74
2018-05-12T08:37:17.704Z,75.99
2018-05-12T08:38:17.712Z,79.47
2018-05-12T08:39:17.714Z,79.43
2018-05-12T08:40:17.753Z,80.69
2018-05-12T08:41:17.725Z,80.54
2018-05-12T08:42:17.730Z,83.59
2018-05-12T08:43:17.737Z,86.14
2018-05-12T08:44:17.742Z,83.73
2018-05-12T08:45:17.746Z,81.55
2018-05-12T08:46:17.753Z,82.48
2018-05-12T08:47:17.758Z,84.80
2018-05-12T08:48:17.772Z,86.73
2018-05-12T08:49:17.768Z,87.65
2018-05-12T08:50:17.776Z,87.84
2018-05-12T08:51:17.778Z,89.04
2018-05-12T08:52:17.783Z,87.65
2018-05-12T08:53:17.790Z,87.12
2018-05-12T08:54:17.795Z,86.77
2018-05-12T08:55:17.899Z,86.68
2018-05-12T08:56:17.804Z,85.38
2018-05-12T08:57:17.808Z,87.90
2018-05-12T08:58:17.814Z,88.47
2018-05-12T08:59:17.816Z,87.84
2018-05-12T09:00:17.822Z,86.73
2018-05-12T09:01:17.826Z,87.65
2018-05-12T09:02:17.833Z,87.99
2018-05-12T09:03:17.834Z,88.42
2018-05-12T09:04:17.837Z,88.13
2018-05-12T09:05:17.842Z,87.60
2018-05-12T09:06:17.846Z,88.56
2018-05-12T09:07:17.900Z,87.88
2018-05-12T09:08:17.855Z,88.75
2018-05-12T09:09:17.860Z,88.56
2018-05-12T09:10:17.866Z,88.32
2018-05-12T09:11:17.872Z,89.19
2018-05-12T09:12:17.870Z,87.94
2018-05-12T09:13:17.873Z,87.65
2018-05-12T09:14:17.878Z,87.12
2018-05-12T09:15:17.880Z,87.12
2018-05-12T09:16:17.882Z,86.29
2018-05-12T09:17:17.887Z,83.40
2018-05-12T09:18:17.897Z,80.31
2018-05-12T09:19:17.922Z,83.20
2018-05-12T09:20:17.900Z,81.70
2018-05-12T09:21:17.901Z,79.97
2018-05-12T09:22:17.906Z,81.09
2018-05-12T09:23:17.909Z,81.18
2018-05-12T09:24:17.913Z,79.83
2018-05-12T09:25:17.917Z,83.98
2018-05-12T09:26:17.920Z,85.52
2018-05-12T09:27:17.923Z,83.15
2018-05-12T09:28:17.929Z,80.20
2018-05-12T09:29:17.935Z,77.21
2018-05-12T09:30:17.943Z,75.12
2018-05-12T09:31:17.940Z,76.53
2018-05-12T09:32:17.944Z,77.11
2018-05-12T09:33:17.948Z,76.24
2018-05-12T09:34:17.952Z,78.13
2018-05-12T09:35:17.957Z,76.10
2018-05-12T09:36:17.960Z,78.38
2018-05-12T09:37:18.003Z,80.18
2018-05-12T09:38:17.967Z,83.26
2018-05-12T09:39:17.970Z,82.82
2018-05-12T09:40:17.991Z,79.64
2018-05-12T09:41:17.979Z,79.98
2018-05-12T09:42:18.037Z,82.14
2018-05-12T09:43:18.017Z,83.15
2018-05-12T09:44:17.991Z,80.54
2018-05-12T09:45:17.999Z,78.67
2018-05-12T09:46:17.999Z,78.38
2018-05-12T09:47:18.013Z,80.41
2018-05-12T09:48:18.010Z,80.51
2018-05-12T09:49:18.008Z,80.94
2018-05-12T09:50:18.013Z,81.62
2018-05-12T09:51:18.019Z,82.49
2018-05-12T09:52:18.026Z,84.18
2018-05-12T09:53:18.021Z,86.01
2018-05-12T09:54:18.027Z,86.30
2018-05-12T09:55:18.035Z,86.21
2018-05-12T09:56:18.038Z,86.30
2018-05-12T09:57:18.039Z,86.88
2018-05-12T09:58:18.042Z,86.45
2018-05-12T09:59:18.045Z,87.36
2018-05-12T10:00:18.048Z,86.69
2018-05-12T10:01:18.053Z,86.88
2018-05-12T10:02:18.055Z,86.69
2018-05-12T10:03:18.064Z,85.28
2018-05-12T10:04:18.064Z,86.29
2018-05-12T10:05:18.070Z,83.50
2018-05-12T10:06:18.069Z,81.85
2018-05-12T10:07:18.070Z,83.74
2018-05-12T10:08:18.076Z,82.29
2018-05-12T10:09:18.079Z,82.20
2018-05-12T10:10:18.086Z,84.80
2018-05-12T10:11:18.096Z,84.86
2018-05-12T10:12:18.088Z,84.86
2018-05-12T10:13:18.092Z,85.82
2018-05-12T10:14:18.092Z,86.45
2018-05-12T10:15:18.097Z,86.93
2018-05-12T10:16:18.100Z,86.49
2018-05-12T10:17:18.110Z,86.21
2018-05-12T10:18:18.110Z,86.26
2018-05-12T10:19:18.141Z,87.07
2018-05-12T10:20:18.118Z,87.65
2018-05-12T10:21:18.118Z,87.26
2018-05-12T10:22:18.121Z,86.30
2018-05-12T10:23:18.121Z,86.78
2018-05-12T10:24:18.127Z,87.26
2018-05-12T10:25:18.133Z,87.74
2018-05-12T10:26:18.149Z,87.21
2018-05-12T10:27:18.140Z,87.30
2018-05-12T10:28:18.145Z,86.25
2018-05-12T10:29:18.143Z,86.35
2018-05-12T10:30:18.147Z,86.54
2018-05-12T10:31:18.148Z,85.86
2018-05-12T10:32:18.157Z,87.02
2018-05-12T10:33:18.154Z,85.91
2018-05-12T10:34:18.160Z,87.17
2018-05-12T10:35:18.163Z,87.26
2018-05-12T10:36:18.165Z,86.92
2018-05-12T10:37:18.168Z,87.70
2018-05-12T10:38:18.175Z,85.28
2018-05-12T10:39:18.175Z,84.61
2018-05-12T10:40:18.180Z,83.36
2018-05-12T10:41:18.183Z,85.19
2018-05-12T10:42:18.187Z,85.47
2018-05-12T10:43:18.189Z,85.47
2018-05-12T10:44:18.195Z,85.23
2018-05-12T10:45:18.266Z,84.52
2018-05-12T10:46:18.207Z,85.33
2018-05-12T10:47:18.204Z,85.56
2018-05-12T10:48:18.206Z,83.01
2018-05-12T10:49:18.210Z,83.16
2018-05-12T10:50:18.218Z,84.03
2018-05-12T10:51:18.217Z,85.05
2018-05-12T10:52:18.219Z,86.69
2018-05-12T10:53:18.226Z,87.07
2018-05-12T10:54:18.228Z,87.74
2018-05-12T10:55:18.229Z,85.34
2018-05-12T10:56:18.233Z,85.47
2018-05-12T10:57:18.237Z,84.12
2018-05-12T10:58:18.243Z,82.59
2018-05-12T10:59:18.241Z,82.24
2018-05-12T11:00:18.249Z,81.76
2018-05-12T11:01:18.250Z,80.22
2018-05-12T11:02:18.255Z,80.93
2018-05-12T11:03:18.256Z,79.87
2018-05-12T11:04:18.260Z,80.41
2018-05-12T11:05:18.265Z,80.99
2018-05-12T11:06:18.261Z,81.18
2018-05-12T11:07:18.268Z,81.80
2018-05-12T11:08:18.272Z,79.68
2018-05-12T11:09:18.277Z,81.90
2018-05-12T11:10:18.282Z,79.72
2018-05-12T11:11:18.284Z,78.46
2018-05-12T11:12:18.286Z,75.62
2018-05-12T11:13:18.292Z,76.92
2018-05-12T11:14:18.293Z,76.43
2018-05-12T11:15:18.295Z,79.81
2018-05-12T11:16:18.297Z,77.34
2018-05-12T11:17:18.310Z,73.96
2018-05-12T11:18:18.307Z,70.87
2018-05-12T11:19:18.309Z,72.80
2018-05-12T11:20:18.396Z,73.93
2018-05-12T11:21:18.326Z,74.21
2018-05-12T11:22:18.323Z,73.73
2018-05-12T11:23:18.325Z,77.11
2018-05-12T11:24:18.328Z,77.50
2018-05-12T11:25:18.328Z,76.82
2018-05-12T11:26:18.344Z,77.13
2018-05-12T11:27:18.341Z,80.08
2018-05-12T11:28:18.343Z,82.53
2018-05-12T11:29:18.348Z,81.70
2018-05-12T11:30:18.352Z,81.02
2018-05-12T11:31:18.355Z,81.22
2018-05-12T11:32:18.376Z,80.45
2018-05-12T11:33:18.362Z,80.12
2018-05-12T11:34:18.369Z,79.44
2018-05-12T11:35:18.374Z,80.22
2018-05-12T11:36:18.379Z,80.99
2018-05-12T11:37:18.379Z,80.26
2018-05-12T11:38:18.382Z,79.87
2018-05-12T11:39:18.384Z,82.76
2018-05-12T11:40:18.394Z,81.09
2018-05-12T11:41:18.398Z,80.79
2018-05-12T11:42:18.407Z,80.93
2018-05-12T11:43:18.404Z,80.49
2018-05-12T11:44:18.406Z,77.88
2018-05-12T11:45:18.408Z,76.53
2018-05-12T11:46:18.416Z,76.18
2018-05-12T11:47:18.419Z,78.11
2018-05-12T11:48:18.424Z,80.24
2018-05-12T11:49:18.424Z,78.69
2018-05-12T11:50:18.430Z,75.18
2018-05-12T11:51:18.442Z,78.81
2018-05-12T11:52:18.443Z,80.16
2018-05-12T11:53:18.440Z,80.93
2018-05-12T11:54:18.445Z,77.07
2018-05-12T11:55:18.455Z,76.82
2018-05-12T11:56:18.460Z,77.21
2018-05-12T11:57:18.458Z,76.43
2018-05-12T11:58:18.481Z,77.21
2018-05-12T11:59:18.461Z,75.92
2018-05-12T12:00:18.467Z,77.07
2018-05-12T12:01:18.476Z,80.45
2018-05-12T12:02:18.475Z,78.03
2018-05-12T12:03:18.495Z,78.17
2018-05-12T12:04:18.482Z,77.30
2018-05-12T12:05:18.486Z,75.85
2018-05-12T12:06:18.492Z,74.18
2018-05-12T12:07:18.501Z,76.50
2018-05-12T12:08:18.497Z,78.29
2018-05-12T12:09:18.502Z,81.27
2018-05-12T12:10:18.511Z,84.21
2018-05-12T12:11:18.517Z,82.28
2018-05-12T12:12:18.513Z,82.34
2018-05-12T12:13:18.518Z,84.80
2018-05-12T12:14:18.524Z,84.75
2018-05-12T12:15:18.527Z,86.10
2018-05-12T12:16:18.533Z,84.69
2018-05-12T12:17:18.533Z,84.31
2018-05-12T12:18:18.539Z,82.57
2018-05-12T12:19:18.539Z,82.48
2018-05-12T12:20:18.546Z,82.86
2018-05-12T12:21:18.549Z,81.60
2018-05-12T12:22:18.571Z,80.45
2018-05-12T12:23:18.552Z,80.39
2018-05-12T12:24:18.560Z,78.94
2018-05-12T12:25:18.565Z,80.00
2018-05-12T12:26:18.571Z,76.86
2018-05-12T12:27:18.576Z,75.67
2018-05-12T12:28:18.574Z,75.99
2018-05-12T12:29:18.579Z,77.11
2018-05-12T12:30:18.585Z,78.36
2018-05-12T12:31:18.591Z,75.70
2018-05-12T12:32:18.589Z,75.31
2018-05-12T12:33:18.645Z,74.16
2018-05-12T12:34:18.601Z,76.95
2018-05-12T12:35:18.601Z,75.64
2018-05-12T12:36:18.609Z,75.09
2018-05-12T12:37:18.610Z,78.08
2018-05-12T12:38:18.613Z,78.17
2018-05-12T12:39:18.616Z,76.40
2018-05-12T12:40:18.621Z,75.37
2018-05-12T12:41:18.626Z,78.85
2018-05-12T12:42:18.627Z,78.27
2018-05-12T12:43:18.627Z,78.75
2018-05-12T12:44:18.634Z,77.17
2018-05-12T12:45:18.639Z,79.74
2018-05-12T12:46:18.644Z,80.89
2018-05-12T12:47:18.651Z,82.72
2018-05-12T12:48:18.650Z,82.43
2018-05-12T12:49:18.654Z,81.85
2018-05-12T12:50:18.659Z,80.54
2018-05-12T12:51:18.658Z,79.68
2018-05-12T12:52:18.663Z,80.06